sensor_id;sensor_type;location;lat;lon;timestamp;temperature;humidity
12853;DHT22;6495;51.808;7.478;2024-02-21T00:00:51;9.20;99.90
12853;DHT22;6495;51.808;7.478;2024-02-21T00:03:28;9.20;99.90
12853;DHT22;6495;51.808;7.478;2024-02-21T00:05:58;9.20;99.90
12853;DHT22;6495;51.808;7.478;2024-02-21T00:11:32;9.20;99.90
12853;DHT22;6495;51.808;7.478;2024-02-21T00:14:08;9.20;99.90
12853;DHT22;6495;51.808;7.478;2024-02-21T00:16:46;9.20;99.90
12853;DHT22;6495;51.808;7.478;2024-02-21T00:19:33;9.20;99.90
12853;DHT22;6495;51.808;7.478;2024-02-21T00:22:25;9.20;99.90
12853;DHT22;6495;51.808;7.478;2024-02-21T00:25:03;9.20;99.90
12853;DHT22;6495;51.808;7.478;2024-02-21T00:27:42;9.20;99.90
12853;DHT22;6495;51.808;7.478;2024-02-21T00:30:20;9.20;99.90
12853;DHT22;6495;51.808;7.478;2024-02-21T00:32:58;9.20;99.90
12853;DHT22;6495;51.808;7.478;2024-02-21T00:35:32;9.20;99.90
12853;DHT22;6495;51.808;7.478;2024-02-21T00:38:06;9.20;99.90
12853;DHT22;6495;51.808;7.478;2024-02-21T00:40:44;9.20;99.90
12853;DHT22;6495;51.808;7.478;2024-02-21T00:43:39;9.20;99.90
12853;DHT22;6495;51.808;7.478;2024-02-21T00:46:08;9.20;99.90
12853;DHT22;6495;51.808;7.478;2024-02-21T00:48:41;9.20;99.90
12853;DHT22;6495;51.808;7.478;2024-02-21T00:51:14;9.20;99.90
12853;DHT22;6495;51.808;7.478;2024-02-21T00:53:49;9.20;99.90
12853;DHT22;6495;51.808;7.478;2024-02-21T00:56:27;9.20;99.90
12853;DHT22;6495;51.808;7.478;2024-02-21T00:58:59;9.20;99.90
12853;DHT22;6495;51.808;7.478;2024-02-21T01:01:34;9.20;99.90
12853;DHT22;6495;51.808;7.478;2024-02-21T01:04:05;9.20;99.90
12853;DHT22;6495;51.808;7.478;2024-02-21T01:06:36;9.20;99.90
12853;DHT22;6495;51.808;7.478;2024-02-21T01:09:19;9.20;99.90
12853;DHT22;6495;51.808;7.478;2024-02-21T01:11:49;9.20;99.90
12853;DHT22;6495;51.808;7.478;2024-02-21T01:14:18;9.30;99.90
12853;DHT22;6495;51.808;7.478;2024-02-21T01:16:47;9.20;99.90
12853;DHT22;6495;51.808;7.478;2024-02-21T01:19:18;9.20;99.90
12853;DHT22;6495;51.808;7.478;2024-02-21T01:21:47;9.20;99.90
12853;DHT22;6495;51.808;7.478;2024-02-21T01:24:19;9.20;99.90
12853;DHT22;6495;51.808;7.478;2024-02-21T01:26:50;9.20;99.90
12853;DHT22;6495;51.808;7.478;2024-02-21T01:29:19;9.20;99.90
12853;DHT22;6495;51.808;7.478;2024-02-21T01:31:48;9.20;99.90
12853;DHT22;6495;51.808;7.478;2024-02-21T01:34:17;9.20;99.90
12853;DHT22;6495;51.808;7.478;2024-02-21T01:36:53;9.20;99.90
12853;DHT22;6495;51.808;7.478;2024-02-21T01:39:25;9.20;99.90
12853;DHT22;6495;51.808;7.478;2024-02-21T01:41:55;9.20;99.90
12853;DHT22;6495;51.808;7.478;2024-02-21T01:44:27;9.20;99.90
12853;DHT22;6495;51.808;7.478;2024-02-21T01:46:56;9.20;99.90
12853;DHT22;6495;51.808;7.478;2024-02-21T01:49:33;9.20;99.90
12853;DHT22;6495;51.808;7.478;2024-02-21T01:52:04;9.20;99.90
12853;DHT22;6495;51.808;7.478;2024-02-21T01:54:46;9.20;99.90
12853;DHT22;6495;51.808;7.478;2024-02-21T01:57:17;9.20;99.90
12853;DHT22;6495;51.808;7.478;2024-02-21T01:59:49;9.30;99.90
12853;DHT22;6495;51.808;7.478;2024-02-21T02:02:19;9.30;99.90
12853;DHT22;6495;51.808;7.478;2024-02-21T02:04:54;9.30;99.90
12853;DHT22;6495;51.808;7.478;2024-02-21T02:07:30;9.30;99.90
12853;DHT22;6495;51.808;7.478;2024-02-21T02:10:03;9.20;99.90
12853;DHT22;6495;51.808;7.478;2024-02-21T02:12:43;9.30;99.90
12853;DHT22;6495;51.808;7.478;2024-02-21T02:15:12;9.30;99.90
12853;DHT22;6495;51.808;7.478;2024-02-21T02:17:46;9.30;99.90
12853;DHT22;6495;51.808;7.478;2024-02-21T02:20:16;9.30;99.90
12853;DHT22;6495;51.808;7.478;2024-02-21T02:22:49;9.20;99.90
12853;DHT22;6495;51.808;7.478;2024-02-21T02:25:30;9.30;99.90
12853;DHT22;6495;51.808;7.478;2024-02-21T02:28:07;9.30;99.90
12853;DHT22;6495;51.808;7.478;2024-02-21T02:30:42;9.20;99.90
12853;DHT22;6495;51.808;7.478;2024-02-21T02:33:14;9.20;99.90
12853;DHT22;6495;51.808;7.478;2024-02-21T02:35:52;9.20;99.90
12853;DHT22;6495;51.808;7.478;2024-02-21T02:38:31;9.20;99.90
12853;DHT22;6495;51.808;7.478;2024-02-21T02:41:03;9.20;99.90
12853;DHT22;6495;51.808;7.478;2024-02-21T02:43:32;9.20;99.90
12853;DHT22;6495;51.808;7.478;2024-02-21T02:46:07;9.20;99.90
12853;DHT22;6495;51.808;7.478;2024-02-21T02:48:41;9.20;99.90
12853;DHT22;6495;51.808;7.478;2024-02-21T02:51:12;9.20;99.90
12853;DHT22;6495;51.808;7.478;2024-02-21T02:53:55;9.20;99.90
12853;DHT22;6495;51.808;7.478;2024-02-21T02:56:27;9.10;99.90
12853;DHT22;6495;51.808;7.478;2024-02-21T02:59:03;9.20;99.90
12853;DHT22;6495;51.808;7.478;2024-02-21T03:01:34;9.20;99.90
12853;DHT22;6495;51.808;7.478;2024-02-21T03:04:04;9.20;99.90
12853;DHT22;6495;51.808;7.478;2024-02-21T03:06:36;9.20;99.90
12853;DHT22;6495;51.808;7.478;2024-02-21T03:09:05;9.20;99.90
12853;DHT22;6495;51.808;7.478;2024-02-21T03:11:43;9.20;99.90
12853;DHT22;6495;51.808;7.478;2024-02-21T03:14:14;9.20;99.90
12853;DHT22;6495;51.808;7.478;2024-02-21T03:16:43;9.20;99.90
12853;DHT22;6495;51.808;7.478;2024-02-21T03:19:14;9.20;99.90
12853;DHT22;6495;51.808;7.478;2024-02-21T03:21:44;9.20;99.90
12853;DHT22;6495;51.808;7.478;2024-02-21T03:24:19;9.20;99.90
12853;DHT22;6495;51.808;7.478;2024-02-21T03:26:52;9.20;99.90
12853;DHT22;6495;51.808;7.478;2024-02-21T03:29:21;9.20;99.90
12853;DHT22;6495;51.808;7.478;2024-02-21T03:31:57;9.20;99.90
12853;DHT22;6495;51.808;7.478;2024-02-21T03:34:27;9.20;99.90
12853;DHT22;6495;51.808;7.478;2024-02-21T03:36:56;9.20;99.90
12853;DHT22;6495;51.808;7.478;2024-02-21T03:39:31;9.20;99.90
12853;DHT22;6495;51.808;7.478;2024-02-21T03:42:03;9.20;99.90
12853;DHT22;6495;51.808;7.478;2024-02-21T03:44:33;9.20;99.90
12853;DHT22;6495;51.808;7.478;2024-02-21T03:47:04;9.10;99.90
12853;DHT22;6495;51.808;7.478;2024-02-21T03:49:33;9.10;99.90
12853;DHT22;6495;51.808;7.478;2024-02-21T03:52:12;9.10;99.90
12853;DHT22;6495;51.808;7.478;2024-02-21T03:54:41;9.20;99.90
12853;DHT22;6495;51.808;7.478;2024-02-21T03:57:17;9.20;99.90
12853;DHT22;6495;51.808;7.478;2024-02-21T03:59:45;9.20;99.90
12853;DHT22;6495;51.808;7.478;2024-02-21T04:02:16;9.20;99.90
12853;DHT22;6495;51.808;7.478;2024-02-21T04:04:48;9.20;99.90
12853;DHT22;6495;51.808;7.478;2024-02-21T04:07:22;9.20;99.90
12853;DHT22;6495;51.808;7.478;2024-02-21T04:09:51;9.20;99.90
12853;DHT22;6495;51.808;7.478;2024-02-21T04:12:22;9.20;99.90
12853;DHT22;6495;51.808;7.478;2024-02-21T04:14:52;9.20;99.90
12853;DHT22;6495;51.808;7.478;2024-02-21T04:17:23;9.20;99.90
12853;DHT22;6495;51.808;7.478;2024-02-21T04:20:05;9.20;99.90
12853;DHT22;6495;51.808;7.478;2024-02-21T04:22:38;9.20;99.90
12853;DHT22;6495;51.808;7.478;2024-02-21T04:25:07;9.20;99.90
12853;DHT22;6495;51.808;7.478;2024-02-21T04:27:49;9.20;99.90
12853;DHT22;6495;51.808;7.478;2024-02-21T04:30:22;9.20;99.90
12853;DHT22;6495;51.808;7.478;2024-02-21T04:32:51;9.20;99.90
12853;DHT22;6495;51.808;7.478;2024-02-21T04:35:23;9.20;99.90
12853;DHT22;6495;51.808;7.478;2024-02-21T04:38:01;9.20;99.90
12853;DHT22;6495;51.808;7.478;2024-02-21T04:40:32;9.20;99.90
12853;DHT22;6495;51.808;7.478;2024-02-21T04:43:11;9.20;99.90
12853;DHT22;6495;51.808;7.478;2024-02-21T04:45:40;9.20;99.90
12853;DHT22;6495;51.808;7.478;2024-02-21T04:48:24;9.20;99.90
12853;DHT22;6495;51.808;7.478;2024-02-21T04:50:53;9.20;99.90
12853;DHT22;6495;51.808;7.478;2024-02-21T04:53:41;9.20;99.90
12853;DHT22;6495;51.808;7.478;2024-02-21T04:56:14;9.20;99.90
12853;DHT22;6495;51.808;7.478;2024-02-21T04:58:51;9.20;99.90
12853;DHT22;6495;51.808;7.478;2024-02-21T05:01:41;9.20;99.90
12853;DHT22;6495;51.808;7.478;2024-02-21T05:05:49;9.20;99.90
12853;DHT22;6495;51.808;7.478;2024-02-21T05:08:24;9.20;99.90
12853;DHT22;6495;51.808;7.478;2024-02-21T05:10:56;9.20;99.90
12853;DHT22;6495;51.808;7.478;2024-02-21T05:13:25;9.20;99.90
12853;DHT22;6495;51.808;7.478;2024-02-21T05:15:55;9.20;99.90
12853;DHT22;6495;51.808;7.478;2024-02-21T05:18:24;9.20;99.90
12853;DHT22;6495;51.808;7.478;2024-02-21T05:20:52;9.20;99.90
12853;DHT22;6495;51.808;7.478;2024-02-21T05:23:20;9.20;99.90
12853;DHT22;6495;51.808;7.478;2024-02-21T05:25:49;9.20;99.90
12853;DHT22;6495;51.808;7.478;2024-02-21T05:29:00;9.20;99.90
12853;DHT22;6495;51.808;7.478;2024-02-21T05:31:43;9.20;99.90
12853;DHT22;6495;51.808;7.478;2024-02-21T05:34:24;9.20;99.90
12853;DHT22;6495;51.808;7.478;2024-02-21T05:48:03;9.20;99.90
12853;DHT22;6495;51.808;7.478;2024-02-21T05:50:38;9.20;99.90
12853;DHT22;6495;51.808;7.478;2024-02-21T05:53:17;9.20;99.90
12853;DHT22;6495;51.808;7.478;2024-02-21T05:55:54;9.20;99.90
12853;DHT22;6495;51.808;7.478;2024-02-21T05:58:28;9.20;99.90
12853;DHT22;6495;51.808;7.478;2024-02-21T06:01:09;9.20;99.90
12853;DHT22;6495;51.808;7.478;2024-02-21T06:03:42;9.10;99.90
12853;DHT22;6495;51.808;7.478;2024-02-21T06:06:16;9.10;99.90
12853;DHT22;6495;51.808;7.478;2024-02-21T06:08:49;9.10;99.90
12853;DHT22;6495;51.808;7.478;2024-02-21T06:11:20;9.10;99.90
12853;DHT22;6495;51.808;7.478;2024-02-21T06:13:55;9.10;99.90
12853;DHT22;6495;51.808;7.478;2024-02-21T06:16:29;9.10;99.90
12853;DHT22;6495;51.808;7.478;2024-02-21T06:19:11;9.00;99.90
12853;DHT22;6495;51.808;7.478;2024-02-21T06:21:45;9.00;99.90
12853;DHT22;6495;51.808;7.478;2024-02-21T06:24:21;9.00;99.90
12853;DHT22;6495;51.808;7.478;2024-02-21T06:26:50;9.00;99.90
12853;DHT22;6495;51.808;7.478;2024-02-21T06:29:19;9.00;99.90
12853;DHT22;6495;51.808;7.478;2024-02-21T06:31:48;9.00;99.90
12853;DHT22;6495;51.808;7.478;2024-02-21T06:34:18;9.00;99.90
12853;DHT22;6495;51.808;7.478;2024-02-21T06:36:51;9.00;99.90
12853;DHT22;6495;51.808;7.478;2024-02-21T06:39:19;9.00;99.90
12853;DHT22;6495;51.808;7.478;2024-02-21T06:41:50;9.00;99.90
12853;DHT22;6495;51.808;7.478;2024-02-21T06:44:21;9.00;99.90
12853;DHT22;6495;51.808;7.478;2024-02-21T06:46:50;9.00;99.90
12853;DHT22;6495;51.808;7.478;2024-02-21T06:49:20;9.00;99.90
12853;DHT22;6495;51.808;7.478;2024-02-21T06:51:49;9.00;99.90
12853;DHT22;6495;51.808;7.478;2024-02-21T06:54:17;9.00;99.90
12853;DHT22;6495;51.808;7.478;2024-02-21T07:11:07;9.00;99.90
12853;DHT22;6495;51.808;7.478;2024-02-21T07:13:36;9.00;99.90
12853;DHT22;6495;51.808;7.478;2024-02-21T07:16:05;9.00;99.90
12853;DHT22;6495;51.808;7.478;2024-02-21T07:18:35;9.00;99.90
12853;DHT22;6495;51.808;7.478;2024-02-21T07:21:03;9.00;99.90
12853;DHT22;6495;51.808;7.478;2024-02-21T07:23:32;9.00;99.90
12853;DHT22;6495;51.808;7.478;2024-02-21T07:26:00;9.00;99.90
12853;DHT22;6495;51.808;7.478;2024-02-21T07:28:33;9.00;99.90
12853;DHT22;6495;51.808;7.478;2024-02-21T07:31:04;9.10;99.90
12853;DHT22;6495;51.808;7.478;2024-02-21T07:33:32;9.10;99.90
12853;DHT22;6495;51.808;7.478;2024-02-21T07:36:07;9.10;99.90
12853;DHT22;6495;51.808;7.478;2024-02-21T07:38:42;9.10;99.90
12853;DHT22;6495;51.808;7.478;2024-02-21T07:41:13;9.10;99.90
12853;DHT22;6495;51.808;7.478;2024-02-21T07:43:46;9.20;99.90
12853;DHT22;6495;51.808;7.478;2024-02-21T07:50:26;9.10;99.90
12853;DHT22;6495;51.808;7.478;2024-02-21T07:53:26;9.20;99.90
12853;DHT22;6495;51.808;7.478;2024-02-21T07:56:07;9.20;99.90
12853;DHT22;6495;51.808;7.478;2024-02-21T07:58:52;9.20;99.90
12853;DHT22;6495;51.808;7.478;2024-02-21T08:01:31;9.20;99.90
12853;DHT22;6495;51.808;7.478;2024-02-21T08:03:59;9.20;99.90
12853;DHT22;6495;51.808;7.478;2024-02-21T08:06:29;9.20;99.90
12853;DHT22;6495;51.808;7.478;2024-02-21T08:08:58;9.20;99.90
12853;DHT22;6495;51.808;7.478;2024-02-21T08:11:27;9.20;99.90
12853;DHT22;6495;51.808;7.478;2024-02-21T08:13:57;9.30;99.90
12853;DHT22;6495;51.808;7.478;2024-02-21T08:16:27;9.30;99.90
12853;DHT22;6495;51.808;7.478;2024-02-21T08:18:55;9.30;99.90
12853;DHT22;6495;51.808;7.478;2024-02-21T08:21:24;9.30;99.90
12853;DHT22;6495;51.808;7.478;2024-02-21T08:23:53;9.30;99.90
12853;DHT22;6495;51.808;7.478;2024-02-21T08:26:21;9.30;99.90
12853;DHT22;6495;51.808;7.478;2024-02-21T08:28:49;9.30;99.90
12853;DHT22;6495;51.808;7.478;2024-02-21T08:31:22;9.30;99.90
12853;DHT22;6495;51.808;7.478;2024-02-21T08:33:51;9.40;99.90
12853;DHT22;6495;51.808;7.478;2024-02-21T08:36:20;9.40;99.90
12853;DHT22;6495;51.808;7.478;2024-02-21T08:38:49;9.40;99.90
12853;DHT22;6495;51.808;7.478;2024-02-21T08:41:17;9.40;99.90
12853;DHT22;6495;51.808;7.478;2024-02-21T08:43:45;9.40;99.90
12853;DHT22;6495;51.808;7.478;2024-02-21T08:46:14;9.40;99.90
12853;DHT22;6495;51.808;7.478;2024-02-21T08:48:45;9.40;99.90
12853;DHT22;6495;51.808;7.478;2024-02-21T08:51:14;9.40;99.90
12853;DHT22;6495;51.808;7.478;2024-02-21T08:53:43;9.40;99.90
12853;DHT22;6495;51.808;7.478;2024-02-21T08:56:11;9.50;99.90
12853;DHT22;6495;51.808;7.478;2024-02-21T08:58:40;9.50;99.90
12853;DHT22;6495;51.808;7.478;2024-02-21T09:01:09;9.50;99.90
12853;DHT22;6495;51.808;7.478;2024-02-21T09:03:38;9.50;99.90
12853;DHT22;6495;51.808;7.478;2024-02-21T09:06:11;9.50;99.90
12853;DHT22;6495;51.808;7.478;2024-02-21T09:08:41;9.50;99.90
12853;DHT22;6495;51.808;7.478;2024-02-21T09:11:09;9.50;99.90
12853;DHT22;6495;51.808;7.478;2024-02-21T09:13:38;9.60;99.90
12853;DHT22;6495;51.808;7.478;2024-02-21T09:16:07;9.60;99.90
12853;DHT22;6495;51.808;7.478;2024-02-21T09:18:36;9.60;99.90
12853;DHT22;6495;51.808;7.478;2024-02-21T09:21:04;9.60;99.90
12853;DHT22;6495;51.808;7.478;2024-02-21T09:23:34;9.60;99.90
12853;DHT22;6495;51.808;7.478;2024-02-21T09:26:03;9.60;99.90
12853;DHT22;6495;51.808;7.478;2024-02-21T09:28:32;9.60;99.90
12853;DHT22;6495;51.808;7.478;2024-02-21T09:31:01;9.60;99.90
12853;DHT22;6495;51.808;7.478;2024-02-21T09:33:29;9.70;99.90
12853;DHT22;6495;51.808;7.478;2024-02-21T09:35:59;9.70;99.90
12853;DHT22;6495;51.808;7.478;2024-02-21T09:38:27;9.70;99.90
12853;DHT22;6495;51.808;7.478;2024-02-21T09:40:59;9.70;99.90
12853;DHT22;6495;51.808;7.478;2024-02-21T09:43:33;9.70;99.90
12853;DHT22;6495;51.808;7.478;2024-02-21T09:46:03;9.70;99.90
12853;DHT22;6495;51.808;7.478;2024-02-21T09:48:42;9.80;99.90
12853;DHT22;6495;51.808;7.478;2024-02-21T09:51:23;9.80;99.90
12853;DHT22;6495;51.808;7.478;2024-02-21T09:53:56;9.80;99.90
12853;DHT22;6495;51.808;7.478;2024-02-21T09:56:45;9.80;99.90
12853;DHT22;6495;51.808;7.478;2024-02-21T09:59:15;9.80;99.90
12853;DHT22;6495;51.808;7.478;2024-02-21T10:01:45;9.80;99.90
12853;DHT22;6495;51.808;7.478;2024-02-21T10:04:42;9.80;99.90
12853;DHT22;6495;51.808;7.478;2024-02-21T10:07:11;9.80;99.90
12853;DHT22;6495;51.808;7.478;2024-02-21T10:09:41;9.90;99.90
12853;DHT22;6495;51.808;7.478;2024-02-21T10:12:14;9.90;99.90
12853;DHT22;6495;51.808;7.478;2024-02-21T10:14:45;9.90;99.90
12853;DHT22;6495;51.808;7.478;2024-02-21T10:17:16;9.90;99.90
12853;DHT22;6495;51.808;7.478;2024-02-21T10:19:46;9.90;99.90
12853;DHT22;6495;51.808;7.478;2024-02-21T10:22:15;9.90;99.90
12853;DHT22;6495;51.808;7.478;2024-02-21T10:24:45;9.90;99.90
12853;DHT22;6495;51.808;7.478;2024-02-21T10:27:15;9.90;99.90
12853;DHT22;6495;51.808;7.478;2024-02-21T10:29:49;9.90;99.90
12853;DHT22;6495;51.808;7.478;2024-02-21T10:32:18;10.00;99.90
12853;DHT22;6495;51.808;7.478;2024-02-21T10:34:47;10.00;99.90
12853;DHT22;6495;51.808;7.478;2024-02-21T10:37:21;10.00;99.90
12853;DHT22;6495;51.808;7.478;2024-02-21T10:39:49;10.00;99.90
12853;DHT22;6495;51.808;7.478;2024-02-21T10:42:21;10.00;99.90
12853;DHT22;6495;51.808;7.478;2024-02-21T10:44:51;10.00;99.90
12853;DHT22;6495;51.808;7.478;2024-02-21T10:47:19;10.00;99.90
12853;DHT22;6495;51.808;7.478;2024-02-21T10:50:04;10.00;99.90
12853;DHT22;6495;51.808;7.478;2024-02-21T10:52:44;10.00;99.90
12853;DHT22;6495;51.808;7.478;2024-02-21T10:55:21;10.00;99.90
12853;DHT22;6495;51.808;7.478;2024-02-21T10:58:00;10.00;99.90
12853;DHT22;6495;51.808;7.478;2024-02-21T11:00:31;10.00;99.90
12853;DHT22;6495;51.808;7.478;2024-02-21T11:03:02;10.00;99.90
12853;DHT22;6495;51.808;7.478;2024-02-21T11:05:32;10.00;99.90
12853;DHT22;6495;51.808;7.478;2024-02-21T11:08:03;10.00;99.90
12853;DHT22;6495;51.808;7.478;2024-02-21T11:10:36;10.00;99.90
12853;DHT22;6495;51.808;7.478;2024-02-21T11:13:13;10.00;99.90
12853;DHT22;6495;51.808;7.478;2024-02-21T11:15:44;10.00;99.90
12853;DHT22;6495;51.808;7.478;2024-02-21T11:18:23;10.00;99.90
12853;DHT22;6495;51.808;7.478;2024-02-21T11:20:52;10.00;99.90
12853;DHT22;6495;51.808;7.478;2024-02-21T11:23:25;10.00;99.90
12853;DHT22;6495;51.808;7.478;2024-02-21T11:26:04;10.00;99.90
12853;DHT22;6495;51.808;7.478;2024-02-21T11:28:35;10.00;99.90
12853;DHT22;6495;51.808;7.478;2024-02-21T11:31:08;10.00;99.90
12853;DHT22;6495;51.808;7.478;2024-02-21T11:33:40;10.00;99.90
12853;DHT22;6495;51.808;7.478;2024-02-21T11:36:09;10.00;99.90
12853;DHT22;6495;51.808;7.478;2024-02-21T11:38:38;10.00;99.90
12853;DHT22;6495;51.808;7.478;2024-02-21T11:41:08;10.00;99.90
12853;DHT22;6495;51.808;7.478;2024-02-21T11:43:42;10.00;99.90
12853;DHT22;6495;51.808;7.478;2024-02-21T11:46:10;10.00;99.90
12853;DHT22;6495;51.808;7.478;2024-02-21T11:48:39;10.00;99.90
12853;DHT22;6495;51.808;7.478;2024-02-21T11:51:10;10.00;99.90
12853;DHT22;6495;51.808;7.478;2024-02-21T11:53:38;10.00;99.90
12853;DHT22;6495;51.808;7.478;2024-02-21T11:56:23;10.00;99.90
12853;DHT22;6495;51.808;7.478;2024-02-21T11:58:54;10.00;99.90
12853;DHT22;6495;51.808;7.478;2024-02-21T12:01:22;10.00;99.90
12853;DHT22;6495;51.808;7.478;2024-02-21T12:03:51;10.00;99.90
12853;DHT22;6495;51.808;7.478;2024-02-21T12:06:19;10.00;99.90
12853;DHT22;6495;51.808;7.478;2024-02-21T12:08:49;10.00;99.90
12853;DHT22;6495;51.808;7.478;2024-02-21T12:11:21;10.00;99.90
12853;DHT22;6495;51.808;7.478;2024-02-21T12:14:02;10.00;99.90
12853;DHT22;6495;51.808;7.478;2024-02-21T12:16:32;10.00;99.90
12853;DHT22;6495;51.808;7.478;2024-02-21T12:19:01;10.00;99.90
12853;DHT22;6495;51.808;7.478;2024-02-21T12:21:31;10.00;99.90
12853;DHT22;6495;51.808;7.478;2024-02-21T12:24:12;10.00;99.90
12853;DHT22;6495;51.808;7.478;2024-02-21T12:26:41;10.00;99.90
12853;DHT22;6495;51.808;7.478;2024-02-21T12:29:11;10.00;99.90
12853;DHT22;6495;51.808;7.478;2024-02-21T12:31:39;10.00;99.90
12853;DHT22;6495;51.808;7.478;2024-02-21T12:34:09;10.10;99.90
12853;DHT22;6495;51.808;7.478;2024-02-21T12:36:41;10.10;99.90
12853;DHT22;6495;51.808;7.478;2024-02-21T12:39:10;10.10;99.90
12853;DHT22;6495;51.808;7.478;2024-02-21T12:41:39;10.10;99.90
12853;DHT22;6495;51.808;7.478;2024-02-21T12:44:11;10.10;99.90
12853;DHT22;6495;51.808;7.478;2024-02-21T12:46:40;10.20;99.90
12853;DHT22;6495;51.808;7.478;2024-02-21T12:49:08;10.20;99.90
12853;DHT22;6495;51.808;7.478;2024-02-21T12:51:38;10.20;99.90
12853;DHT22;6495;51.808;7.478;2024-02-21T12:54:08;10.20;99.90
12853;DHT22;6495;51.808;7.478;2024-02-21T12:56:38;10.20;99.90
12853;DHT22;6495;51.808;7.478;2024-02-21T12:59:07;10.30;99.90
12853;DHT22;6495;51.808;7.478;2024-02-21T13:01:39;10.30;99.90
12853;DHT22;6495;51.808;7.478;2024-02-21T13:04:08;10.30;99.90
12853;DHT22;6495;51.808;7.478;2024-02-21T13:06:48;10.30;99.90
12853;DHT22;6495;51.808;7.478;2024-02-21T13:09:25;10.30;99.90
12853;DHT22;6495;51.808;7.478;2024-02-21T13:11:54;10.30;99.90
12853;DHT22;6495;51.808;7.478;2024-02-21T13:14:22;10.40;99.90
12853;DHT22;6495;51.808;7.478;2024-02-21T13:16:52;10.40;99.90
12853;DHT22;6495;51.808;7.478;2024-02-21T13:19:21;10.40;99.90
12853;DHT22;6495;51.808;7.478;2024-02-21T13:21:50;10.40;99.90
12853;DHT22;6495;51.808;7.478;2024-02-21T13:24:18;10.50;99.90
12853;DHT22;6495;51.808;7.478;2024-02-21T13:26:47;10.50;99.90
12853;DHT22;6495;51.808;7.478;2024-02-21T13:29:15;10.50;99.90
12853;DHT22;6495;51.808;7.478;2024-02-21T13:31:44;10.50;99.90
12853;DHT22;6495;51.808;7.478;2024-02-21T13:34:14;10.60;99.90
12853;DHT22;6495;51.808;7.478;2024-02-21T13:36:42;10.60;99.90
12853;DHT22;6495;51.808;7.478;2024-02-21T13:39:11;10.60;99.90
12853;DHT22;6495;51.808;7.478;2024-02-21T13:41:42;10.70;99.90
12853;DHT22;6495;51.808;7.478;2024-02-21T13:44:11;10.70;99.90
12853;DHT22;6495;51.808;7.478;2024-02-21T13:46:40;10.70;99.90
12853;DHT22;6495;51.808;7.478;2024-02-21T13:49:08;10.70;99.90
12853;DHT22;6495;51.808;7.478;2024-02-21T13:51:38;10.70;99.90
12853;DHT22;6495;51.808;7.478;2024-02-21T13:54:07;10.70;99.90
12853;DHT22;6495;51.808;7.478;2024-02-21T13:56:36;10.80;99.90
12853;DHT22;6495;51.808;7.478;2024-02-21T13:59:05;10.70;99.90
12853;DHT22;6495;51.808;7.478;2024-02-21T14:01:33;10.70;99.90
12853;DHT22;6495;51.808;7.478;2024-02-21T14:04:09;10.80;99.90
12853;DHT22;6495;51.808;7.478;2024-02-21T14:06:39;10.70;99.90
12853;DHT22;6495;51.808;7.478;2024-02-21T14:09:11;10.70;99.90
12853;DHT22;6495;51.808;7.478;2024-02-21T14:11:39;10.70;99.90
12853;DHT22;6495;51.808;7.478;2024-02-21T14:14:09;10.60;99.90
12853;DHT22;6495;51.808;7.478;2024-02-21T14:16:38;10.60;99.90
12853;DHT22;6495;51.808;7.478;2024-02-21T14:19:06;10.60;99.90
12853;DHT22;6495;51.808;7.478;2024-02-21T14:21:36;10.60;99.90
12853;DHT22;6495;51.808;7.478;2024-02-21T14:24:06;10.60;99.90
12853;DHT22;6495;51.808;7.478;2024-02-21T14:26:35;10.60;99.90
12853;DHT22;6495;51.808;7.478;2024-02-21T14:29:04;10.60;99.90
12853;DHT22;6495;51.808;7.478;2024-02-21T14:31:33;10.60;99.90
12853;DHT22;6495;51.808;7.478;2024-02-21T14:34:01;10.60;99.90
12853;DHT22;6495;51.808;7.478;2024-02-21T14:36:30;10.60;99.90
12853;DHT22;6495;51.808;7.478;2024-02-21T14:39:00;10.60;99.90
12853;DHT22;6495;51.808;7.478;2024-02-21T14:41:30;10.60;99.90
12853;DHT22;6495;51.808;7.478;2024-02-21T14:44:02;10.60;99.90
12853;DHT22;6495;51.808;7.478;2024-02-21T14:46:31;10.60;99.90
12853;DHT22;6495;51.808;7.478;2024-02-21T14:49:00;10.60;99.90
12853;DHT22;6495;51.808;7.478;2024-02-21T14:51:29;10.70;99.90
12853;DHT22;6495;51.808;7.478;2024-02-21T14:53:58;10.70;99.90
12853;DHT22;6495;51.808;7.478;2024-02-21T14:56:26;10.70;99.90
12853;DHT22;6495;51.808;7.478;2024-02-21T14:58:56;10.70;99.90
12853;DHT22;6495;51.808;7.478;2024-02-21T15:01:37;10.70;99.90
12853;DHT22;6495;51.808;7.478;2024-02-21T15:04:06;10.70;99.90
12853;DHT22;6495;51.808;7.478;2024-02-21T15:06:36;10.70;99.90
12853;DHT22;6495;51.808;7.478;2024-02-21T15:09:06;10.70;99.90
12853;DHT22;6495;51.808;7.478;2024-02-21T15:11:35;10.70;99.90
12853;DHT22;6495;51.808;7.478;2024-02-21T15:14:06;10.70;99.90
12853;DHT22;6495;51.808;7.478;2024-02-21T15:16:34;10.70;99.90
12853;DHT22;6495;51.808;7.478;2024-02-21T15:19:03;10.70;99.90
12853;DHT22;6495;51.808;7.478;2024-02-21T15:21:32;10.70;99.90
12853;DHT22;6495;51.808;7.478;2024-02-21T15:24:01;10.70;99.90
12853;DHT22;6495;51.808;7.478;2024-02-21T15:26:30;10.70;99.90
12853;DHT22;6495;51.808;7.478;2024-02-21T15:29:03;10.70;99.90
12853;DHT22;6495;51.808;7.478;2024-02-21T15:31:34;10.70;99.90
12853;DHT22;6495;51.808;7.478;2024-02-21T15:34:05;10.70;99.90
12853;DHT22;6495;51.808;7.478;2024-02-21T15:36:34;10.60;99.90
12853;DHT22;6495;51.808;7.478;2024-02-21T15:39:04;10.70;99.90
12853;DHT22;6495;51.808;7.478;2024-02-21T15:41:34;10.60;99.90
12853;DHT22;6495;51.808;7.478;2024-02-21T15:44:04;10.60;99.90
12853;DHT22;6495;51.808;7.478;2024-02-21T15:46:46;10.60;99.90
12853;DHT22;6495;51.808;7.478;2024-02-21T15:53:12;10.60;99.90
12853;DHT22;6495;51.808;7.478;2024-02-21T16:05:43;10.50;99.90
12853;DHT22;6495;51.808;7.478;2024-02-21T16:11:14;10.60;99.90
12853;DHT22;6495;51.808;7.478;2024-02-21T16:13:49;10.60;99.90
12853;DHT22;6495;51.808;7.478;2024-02-21T16:16:18;10.60;99.90
12853;DHT22;6495;51.808;7.478;2024-02-21T16:18:48;10.60;99.90
12853;DHT22;6495;51.808;7.478;2024-02-21T16:21:19;10.60;99.90
12853;DHT22;6495;51.808;7.478;2024-02-21T16:23:52;10.60;99.90
12853;DHT22;6495;51.808;7.478;2024-02-21T16:26:21;10.50;99.90
12853;DHT22;6495;51.808;7.478;2024-02-21T16:28:52;10.50;99.90
12853;DHT22;6495;51.808;7.478;2024-02-21T16:31:21;10.50;99.90
12853;DHT22;6495;51.808;7.478;2024-02-21T16:33:50;10.50;99.90
12853;DHT22;6495;51.808;7.478;2024-02-21T16:36:21;10.50;99.90
12853;DHT22;6495;51.808;7.478;2024-02-21T16:38:51;10.50;99.90
12853;DHT22;6495;51.808;7.478;2024-02-21T16:41:22;10.50;99.90
12853;DHT22;6495;51.808;7.478;2024-02-21T16:43:51;10.50;99.90
12853;DHT22;6495;51.808;7.478;2024-02-21T16:49:52;10.50;99.90
12853;DHT22;6495;51.808;7.478;2024-02-21T16:52:21;10.40;99.90
12853;DHT22;6495;51.808;7.478;2024-02-21T16:54:50;10.50;99.90
12853;DHT22;6495;51.808;7.478;2024-02-21T16:57:19;10.40;99.90
12853;DHT22;6495;51.808;7.478;2024-02-21T16:59:47;10.40;99.90
12853;DHT22;6495;51.808;7.478;2024-02-21T17:02:16;10.40;99.90
12853;DHT22;6495;51.808;7.478;2024-02-21T17:04:46;10.40;99.90
12853;DHT22;6495;51.808;7.478;2024-02-21T17:07:17;10.40;99.90
12853;DHT22;6495;51.808;7.478;2024-02-21T17:09:48;10.40;99.90
12853;DHT22;6495;51.808;7.478;2024-02-21T17:12:16;10.40;99.90
12853;DHT22;6495;51.808;7.478;2024-02-21T17:14:45;10.40;99.90
12853;DHT22;6495;51.808;7.478;2024-02-21T17:17:14;10.40;99.90
12853;DHT22;6495;51.808;7.478;2024-02-21T17:19:43;10.40;99.90